Time;durP1;ratioP1;P1;durP2;ratioP2;P2;SDS_P1;SDS_P2;PMS_P1;PMS_P2;Temp;Humidity;BMP_temperature;BMP_pressure;BME280_temperature;BME280_humidity;BME280_pressure;Samples;Min_cycle;Max_cycle;Signal;HPM_P1;HPM_P2
2023/04/17 00:01:36;;;;;;;22.42;18.52;;;307.70;2304.00;;;;;;5051025;28;20517;-62
2023/04/17 00:04:02;;;;;;;26.50;21.30;;;307.80;2304.00;;;;;;5051283;28;20040;-62
2023/04/17 00:06:28;;;;;;;22.90;18.25;;;307.80;2304.00;;;;;;5045105;28;20037;-61
2023/04/17 00:08:54;;;;;;;24.98;21.35;;;307.70;2304.00;;;;;;5030523;28;20045;-61
2023/04/17 00:11:21;;;;;;;26.35;21.35;;;307.60;2304.00;;;;;;5050651;28;20047;-61
2023/04/17 00:13:47;;;;;;;23.90;20.02;;;307.70;2304.00;;;;;;5050777;28;20039;-62
2023/04/17 00:16:12;;;;;;;22.65;19.15;;;307.80;2304.00;;;;;;5050867;28;20108;-63
2023/04/17 00:18:39;;;;;;;26.08;20.08;;;307.70;2304.00;;;;;;5038376;28;20046;-61
2023/04/17 00:21:05;;;;;;;24.58;20.48;;;307.70;2304.00;;;;;;5050150;28;20519;-61
2023/04/17 00:23:31;;;;;;;24.88;19.73;;;307.80;2304.00;;;;;;5050932;28;20101;-60
2023/04/17 00:25:56;;;;;;;28.05;21.38;;;307.70;2304.00;;;;;;5050360;28;20025;-60
2023/04/17 00:28:22;;;;;;;25.70;20.48;;;307.70;2304.00;;;;;;5050851;28;20490;-61
2023/04/17 00:30:48;;;;;;;27.25;22.00;;;307.70;2304.00;;;;;;5050264;28;20017;-62
2023/04/17 00:33:14;;;;;;;27.30;20.80;;;307.70;2304.00;;;;;;5050578;28;20048;-62
2023/04/17 00:35:40;;;;;;;24.23;19.90;;;307.70;2304.00;;;;;;5050508;28;20040;-61
2023/04/17 00:38:07;;;;;;;23.92;18.90;;;307.60;2304.00;;;;;;5050457;28;20079;-61
2023/04/17 00:40:34;;;;;;;29.10;23.08;;;307.70;2304.00;;;;;;5049395;28;20027;-61
2023/04/17 00:43:05;;;;;;;23.60;20.85;;;307.60;2304.00;;;;;;5050412;28;20060;-61
2023/04/17 00:45:31;;;;;;;27.60;21.98;;;307.70;2304.00;;;;;;5049646;28;20100;-61
2023/04/17 00:47:58;;;;;;;24.90;20.05;;;307.60;2304.00;;;;;;5043172;28;20056;-63
2023/04/17 00:50:26;;;;;;;26.30;22.42;;;307.60;2304.00;;;;;;5049714;28;20393;-60
2023/04/17 00:52:52;;;;;;;25.75;20.73;;;307.50;2304.00;;;;;;5049211;28;20064;-62
2023/04/17 00:55:19;;;;;;;22.23;19.60;;;307.50;2304.00;;;;;;5029933;28;20057;-61
2023/04/17 00:57:48;;;;;;;30.23;23.48;;;307.60;2304.00;;;;;;5045415;28;20075;-59
2023/04/17 01:00:15;;;;;;;25.67;21.60;;;307.60;2304.00;;;;;;5050244;28;20081;-61
2023/04/17 01:02:41;;;;;;;24.98;20.80;;;307.60;2304.00;;;;;;5050172;28;20108;-60
2023/04/17 01:05:07;;;;;;;22.52;18.40;;;307.60;2304.00;;;;;;5040254;28;20123;-60
2023/04/17 01:07:33;;;;;;;21.45;18.77;;;307.70;2304.00;;;;;;5030296;28;20021;-63
2023/04/17 01:09:59;;;;;;;23.33;19.67;;;307.70;2304.00;;;;;;5039921;28;20025;-61
2023/04/17 01:12:25;;;;;;;22.70;19.35;;;307.60;2304.00;;;;;;5040714;28;20045;-61
2023/04/17 01:14:52;;;;;;;28.50;23.27;;;307.60;2304.00;;;;;;5029916;28;20025;-60
2023/04/17 01:17:18;;;;;;;26.98;22.13;;;307.60;2304.00;;;;;;5029727;28;20045;-62
2023/04/17 01:19:44;;;;;;;24.35;20.95;;;307.60;2304.00;;;;;;5030119;28;20419;-61
2023/04/17 01:22:10;;;;;;;44.63;31.00;;;307.60;2304.00;;;;;;5043427;28;20026;-62
2023/04/17 01:24:36;;;;;;;22.42;19.33;;;307.60;2304.00;;;;;;5029657;28;20105;-63
2023/04/17 01:27:03;;;;;;;21.17;17.13;;;307.60;2304.00;;;;;;5048187;28;20025;-63
2023/04/17 01:29:29;;;;;;;38.30;29.13;;;307.50;2304.00;;;;;;5049243;28;20021;-63
2023/04/17 01:31:55;;;;;;;20.70;16.95;;;307.60;2304.00;;;;;;5049401;28;20016;-65
2023/04/17 01:34:21;;;;;;;19.90;17.63;;;307.60;2176.00;;;;;;5049728;28;20368;-64
2023/04/17 01:36:47;;;;;;;38.65;29.35;;;307.60;2304.00;;;;;;5049345;28;20088;-64
2023/04/17 01:39:13;;;;;;;24.52;17.10;;;307.60;2304.00;;;;;;5049488;28;20033;-64
2023/04/17 01:41:38;;;;;;;53.55;35.38;;;307.70;2304.00;;;;;;5022974;28;20013;-63
2023/04/17 01:44:04;;;;;;;24.48;18.65;;;307.70;2304.00;;;;;;5049468;28;20054;-63
2023/04/17 01:46:30;;;;;;;28.38;21.25;;;307.60;2304.00;;;;;;5049129;28;20467;-63
2023/04/17 01:48:56;;;;;;;19.38;16.60;;;307.60;2304.00;;;;;;5049416;28;20466;-62
2023/04/17 01:51:21;;;;;;;21.38;16.85;;;307.60;2304.00;;;;;;5049569;28;20018;-62
2023/04/17 01:53:47;;;;;;;26.70;20.38;;;307.60;2304.00;;;;;;5048899;28;20482;-62
2023/04/17 01:56:13;;;;;;;30.83;20.80;;;307.60;2304.00;;;;;;5048924;28;20024;-62
2023/04/17 01:58:39;;;;;;;20.45;16.20;;;307.60;2304.00;;;;;;5048978;28;20021;-63
2023/04/17 02:01:05;;;;;;;18.52;15.55;;;307.60;2304.00;;;;;;5048704;28;20025;-61
2023/04/17 02:03:31;;;;;;;21.95;17.13;;;307.50;2304.00;;;;;;5049034;28;20665;-62
2023/04/17 02:05:57;;;;;;;19.60;15.55;;;307.50;1996.80;;;;;;5048766;28;20108;-62
2023/04/17 02:08:23;;;;;;;17.73;15.13;;;307.50;2304.00;;;;;;5048891;28;20121;-62
2023/04/17 02:10:49;;;;;;;19.83;15.57;;;307.40;2227.20;;;;;;5048989;28;20025;-62
2023/04/17 02:13:15;;;;;;;20.45;16.52;;;307.40;2304.00;;;;;;5049110;28;20037;-63
2023/04/17 02:15:41;;;;;;;19.10;15.10;;;307.50;2304.00;;;;;;5049053;28;20025;-62
2023/04/17 02:18:07;;;;;;;20.20;16.48;;;307.40;2304.00;;;;;;5040669;28;20476;-63
2023/04/17 02:20:34;;;;;;;23.40;16.60;;;307.50;2304.00;;;;;;5044134;28;20059;-62
2023/04/17 02:23:01;;;;;;;19.67;16.95;;;307.50;2304.00;;;;;;5049317;28;20104;-62
2023/04/17 02:25:27;;;;;;;25.27;18.50;;;307.40;2304.00;;;;;;5048238;28;20125;-61
2023/04/17 02:27:55;;;;;;;22.27;15.93;;;307.30;2304.00;;;;;;5049075;28;20128;-62
2023/04/17 02:30:24;;;;;;;27.02;19.25;;;307.50;2252.80;;;;;;5048566;28;20544;-62
2023/04/17 02:32:51;;;;;;;21.02;17.55;;;307.30;2304.00;;;;;;5048727;28;20506;-63
2023/04/17 02:35:18;;;;;;;18.95;16.70;;;307.30;2304.00;;;;;;5048579;28;20021;-63
2023/04/17 02:37:44;;;;;;;22.10;16.15;;;307.30;2304.00;;;;;;5039512;28;20095;-62
2023/04/17 02:40:10;;;;;;;18.95;15.65;;;307.30;2304.00;;;;;;5044849;28;20479;-61
2023/04/17 02:42:36;;;;;;;18.83;15.82;;;307.20;2304.00;;;;;;5039140;28;20102;-62
2023/04/17 02:45:03;;;;;;;17.67;14.95;;;307.20;2304.00;;;;;;5045230;28;20038;-61
2023/04/17 02:47:29;;;;;;;20.38;15.30;;;307.20;2304.00;;;;;;5039546;28;20033;-63
2023/04/17 02:49:55;;;;;;;20.42;16.02;;;307.20;2304.00;;;;;;5044834;28;20501;-60
2023/04/17 02:52:21;;;;;;;18.00;14.65;;;307.30;2304.00;;;;;;5048857;28;20025;-61
2023/04/17 02:54:47;;;;;;;18.77;15.45;;;307.30;2304.00;;;;;;5048448;28;20100;-62
2023/04/17 02:57:13;;;;;;;18.52;15.50;;;307.20;2304.00;;;;;;5048959;28;20119;-61
2023/04/17 02:59:38;;;;;;;18.20;15.48;;;307.30;2304.00;;;;;;5048272;28;20029;-61
2023/04/17 03:02:04;;;;;;;20.13;16.23;;;307.30;2304.00;;;;;;5048447;28;20049;-60
2023/04/17 03:04:33;;;;;;;25.23;16.92;;;307.30;2304.00;;;;;;5048568;28;20379;-61
2023/04/17 03:06:59;;;;;;;18.85;14.60;;;307.40;1996.80;;;;;;5048481;28;20691;-61
2023/04/17 03:09:25;;;;;;;18.05;14.73;;;307.30;2304.00;;;;;;5047927;28;20025;-60
2023/04/17 03:11:50;;;;;;;17.52;14.45;;;307.50;2304.00;;;;;;5042786;28;20017;-61
2023/04/17 03:14:16;;;;;;;16.13;14.07;;;307.30;2304.00;;;;;;5044762;28;20102;-62
2023/04/17 03:16:42;;;;;;;19.23;14.98;;;307.30;2304.00;;;;;;5052187;28;20029;-62
2023/04/17 03:19:08;;;;;;;19.55;15.82;;;307.30;2304.00;;;;;;5052176;28;20031;-64
2023/04/17 03:21:33;;;;;;;18.17;14.70;;;307.30;2304.00;;;;;;5051562;28;20048;-62
2023/04/17 03:23:59;;;;;;;17.67;14.00;;;307.30;2304.00;;;;;;5051946;28;20025;-61
2023/04/17 03:26:25;;;;;;;18.10;14.82;;;307.30;2304.00;;;;;;5052140;28;20071;-64
2023/04/17 03:28:51;;;;;;;16.30;14.13;;;307.30;2304.00;;;;;;5052462;28;20029;-62
2023/04/17 03:31:16;;;;;;;17.58;14.60;;;307.30;2304.00;;;;;;5051390;28;20378;-62
2023/04/17 03:33:42;;;;;;;20.40;14.60;;;307.30;2304.00;;;;;;5051745;28;20113;-64
2023/04/17 03:36:08;;;;;;;19.83;15.38;;;307.30;2304.00;;;;;;5044536;28;20081;-61
2023/04/17 03:38:36;;;;;;;18.08;14.70;;;307.30;2304.00;;;;;;5040529;28;20063;-62
2023/04/17 03:41:02;;;;;;;19.45;15.63;;;307.30;2304.00;;;;;;5049503;28;20017;-62
2023/04/17 03:43:28;;;;;;;20.75;15.75;;;307.30;2304.00;;;;;;5051650;28;20402;-62
2023/04/17 03:45:53;;;;;;;18.77;14.90;;;307.40;2304.00;;;;;;5051096;28;20024;-62
2023/04/17 03:48:19;;;;;;;17.40;15.02;;;307.40;2304.00;;;;;;5051092;28;20024;-62
2023/04/17 03:50:45;;;;;;;16.02;14.23;;;307.40;2304.00;;;;;;5051531;28;20021;-62
2023/04/17 03:53:10;;;;;;;19.50;15.65;;;307.50;2073.60;;;;;;5051301;28;20103;-61
2023/04/17 03:55:36;;;;;;;19.98;16.20;;;307.50;2176.00;;;;;;5051847;28;20024;-60
2023/04/17 03:58:02;;;;;;;22.50;16.60;;;307.50;1971.20;;;;;;5051671;28;20021;-61
2023/04/17 04:00:27;;;;;;;21.33;16.60;;;307.40;2073.60;;;;;;5051064;28;20352;-61
2023/04/17 04:02:53;;;;;;;21.48;17.20;;;307.40;2150.40;;;;;;5051079;28;20028;-62
2023/04/17 04:05:19;;;;;;;20.15;15.82;;;307.40;2304.00;;;;;;5051076;28;20546;-61
2023/04/17 04:07:44;;;;;;;18.38;15.60;;;307.50;2304.00;;;;;;5044388;28;20087;-61
2023/04/17 04:10:10;;;;;;;20.50;17.00;;;307.50;2304.00;;;;;;5050874;28;20083;-63
2023/04/17 04:12:36;;;;;;;20.98;16.55;;;307.50;2278.40;;;;;;5051120;28;20102;-61
2023/04/17 04:15:02;;;;;;;20.90;17.58;;;307.50;2048.00;;;;;;5051415;28;20059;-61
2023/04/17 04:17:27;;;;;;;19.48;17.40;;;307.40;2304.00;;;;;;5050697;28;20035;-61
2023/04/17 04:19:53;;;;;;;20.80;16.80;;;307.30;2304.00;;;;;;5050959;28;20029;-62
2023/04/17 04:22:20;;;;;;;20.88;18.48;;;307.40;2304.00;;;;;;5051035;28;20112;-62
2023/04/17 04:24:46;;;;;;;22.02;18.58;;;307.50;2304.00;;;;;;5049604;28;20526;-62
2023/04/17 04:27:16;;;;;;;21.25;18.23;;;307.50;2304.00;;;;;;5051142;28;20040;-63
2023/04/17 04:29:44;;;;;;;21.58;18.90;;;307.50;2304.00;;;;;;5050842;28;20025;-62
2023/04/17 04:32:12;;;;;;;22.00;18.85;;;307.50;1920.00;;;;;;5050227;28;20040;-63
2023/04/17 04:34:38;;;;;;;26.27;19.90;;;307.60;2201.60;;;;;;5050467;28;20070;-63
2023/04/17 04:37:03;;;;;;;26.95;20.25;;;307.60;1971.20;;;;;;5046407;28;20025;-63
2023/04/17 04:39:29;;;;;;;24.27;19.23;;;307.50;2304.00;;;;;;5041987;28;20032;-63
2023/04/17 04:41:55;;;;;;;24.35;19.88;;;307.50;2304.00;;;;;;5050288;28;20501;-62
2023/04/17 04:44:20;;;;;;;22.15;18.60;;;307.50;2304.00;;;;;;5050478;28;20379;-62
2023/04/17 04:46:46;;;;;;;27.45;20.02;;;307.60;2304.00;;;;;;5050357;28;20086;-62
2023/04/17 04:49:12;;;;;;;28.08;21.17;;;307.70;2099.20;;;;;;5051019;28;20071;-62
2023/04/17 04:51:38;;;;;;;26.55;20.92;;;307.60;1996.80;;;;;;5050217;28;20160;-62
2023/04/17 04:54:04;;;;;;;26.02;21.23;;;307.60;2304.00;;;;;;5050067;28;20442;-62
2023/04/17 04:56:30;;;;;;;28.63;22.55;;;307.50;2304.00;;;;;;5050608;28;20024;-62
2023/04/17 04:58:56;;;;;;;26.80;22.35;;;307.60;2304.00;;;;;;5050200;28;20052;-62
2023/04/17 05:01:22;;;;;;;26.75;22.13;;;307.50;2304.00;;;;;;5050148;28;20070;-62
2023/04/17 05:03:48;;;;;;;31.17;22.25;;;307.60;2304.00;;;;;;5049874;28;20056;-62
2023/04/17 05:06:14;;;;;;;26.13;21.52;;;307.60;2022.40;;;;;;5050239;28;20064;-62
2023/04/17 05:08:40;;;;;;;28.45;22.30;;;307.60;2304.00;;;;;;5049902;28;20032;-62
2023/04/17 05:11:06;;;;;;;30.77;24.23;;;307.50;2304.00;;;;;;5041108;28;20025;-62
2023/04/17 05:13:32;;;;;;;31.98;23.13;;;307.60;2304.00;;;;;;5045000;28;20037;-62
2023/04/17 05:15:57;;;;;;;32.33;24.80;;;307.50;2304.00;;;;;;5041642;28;20360;-63
2023/04/17 05:18:23;;;;;;;31.63;23.30;;;307.50;2304.00;;;;;;5043371;28;20032;-61
2023/04/17 05:20:50;;;;;;;31.55;24.88;;;307.50;2304.00;;;;;;5044770;28;20017;-61
2023/04/17 05:23:16;;;;;;;34.30;25.50;;;307.60;2304.00;;;;;;5048389;28;20502;-63
2023/04/17 05:25:42;;;;;;;34.60;24.52;;;307.60;2304.00;;;;;;5048791;28;20029;-62
2023/04/17 05:28:07;;;;;;;40.38;30.00;;;307.80;2304.00;;;;;;5049133;28;20028;-62
2023/04/17 05:30:33;;;;;;;33.28;25.27;;;307.80;2022.40;;;;;;5035385;28;20387;-61
2023/04/17 05:32:59;;;;;;;37.58;28.35;;;307.90;2304.00;;;;;;5048369;28;20387;-61
2023/04/17 05:35:26;;;;;;;38.13;29.40;;;307.90;2304.00;;;;;;5048230;28;20033;-61
2023/04/17 05:37:52;;;;;;;30.65;25.48;;;307.90;2304.00;;;;;;5043023;28;20025;-63
2023/04/17 05:40:19;;;;;;;29.67;25.58;;;308.00;2304.00;;;;;;5038439;28;20029;-61
2023/04/17 05:42:44;;;;;;;40.00;31.05;;;307.90;2304.00;;;;;;5048000;28;20048;-62
2023/04/17 05:45:14;;;;;;;28.75;23.42;;;308.00;2304.00;;;;;;5048313;28;20028;-60
2023/04/17 05:47:40;;;;;;;27.73;23.58;;;308.00;2304.00;;;;;;5048076;28;20074;-61
2023/04/17 05:50:07;;;;;;;28.13;21.98;;;308.10;2304.00;;;;;;5048146;28;20088;-62
2023/04/17 05:52:33;;;;;;;26.25;22.38;;;308.10;2304.00;;;;;;5048553;28;20759;-62
2023/04/17 05:54:59;;;;;;;61.05;55.28;;;308.10;2304.00;;;;;;5034187;28;20040;-63
2023/04/17 05:57:24;;;;;;;34.50;28.65;;;307.90;2304.00;;;;;;5047679;28;20021;-61
2023/04/17 05:59:50;;;;;;;29.33;23.42;;;308.10;2304.00;;;;;;5048176;28;20067;-62
2023/04/17 06:02:16;;;;;;;30.63;26.15;;;307.90;2304.00;;;;;;5048210;28;20056;-62
2023/04/17 06:04:42;;;;;;;37.85;33.67;;;307.90;2304.00;;;;;;5048406;28;20032;-62
2023/04/17 06:07:09;;;;;;;55.50;35.80;;;308.10;2304.00;;;;;;5048706;28;20021;-61
2023/04/17 06:09:35;;;;;;;29.38;25.02;;;332.80;2329.60;;;;;;5047682;28;20049;-62
2023/04/17 06:12:02;;;;;;;164.48;119.60;;;332.90;2329.60;;;;;;5038068;28;20477;-62
2023/04/17 06:14:28;;;;;;;48.53;32.35;;;333.00;2329.60;;;;;;5043278;28;20483;-61
2023/04/17 06:16:54;;;;;;;31.15;25.92;;;333.10;2329.60;;;;;;5048380;28;20032;-61
2023/04/17 06:19:19;;;;;;;30.30;24.95;;;333.20;2329.60;;;;;;5046246;28;20040;-62
2023/04/17 06:21:45;;;;;;;35.65;29.10;;;333.20;2329.60;;;;;;5036611;28;20017;-61
2023/04/17 06:24:11;;;;;;;71.63;55.20;;;333.10;2329.60;;;;;;5048594;28;20048;-61
2023/04/17 06:26:36;;;;;;;51.75;42.70;;;333.40;2329.60;;;;;;5045529;28;20039;-62
2023/04/17 06:29:03;;;;;;;38.55;34.33;;;333.50;2329.60;;;;;;5029507;28;20379;-62
2023/04/17 06:31:29;;;;;;;57.35;39.00;;;333.60;2329.60;;;;;;5031908;28;20037;-62
2023/04/17 06:33:55;;;;;;;27.40;24.00;;;333.70;2329.60;;;;;;5034259;28;20060;-62
2023/04/17 06:36:20;;;;;;;85.45;55.13;;;333.60;2329.60;;;;;;5036654;28;20052;-61
2023/04/17 06:38:46;;;;;;;43.00;31.30;;;333.40;2329.60;;;;;;5048449;28;20037;-61
2023/04/17 06:41:13;;;;;;;31.48;25.25;;;333.30;2329.60;;;;;;5049121;28;20060;-62
2023/04/17 06:43:39;;;;;;;29.10;23.00;;;333.30;2329.60;;;;;;5036645;28;20060;-61
2023/04/17 06:46:04;;;;;;;26.60;22.30;;;333.40;2329.60;;;;;;5027790;28;20045;-62
2023/04/17 06:48:30;;;;;;;31.48;24.15;;;333.40;2329.60;;;;;;5044716;28;20072;-63
2023/04/17 06:50:56;;;;;;;63.53;44.22;;;333.40;2329.60;;;;;;5043337;28;20066;-62
2023/04/17 06:53:21;;;;;;;126.40;84.15;;;333.40;2329.60;;;;;;5038216;28;20045;-60
2023/04/17 06:55:47;;;;;;;54.80;43.28;;;333.40;2329.60;;;;;;5051953;28;20486;-62
2023/04/17 06:58:13;;;;;;;166.38;123.75;;;333.40;2329.60;;;;;;5052187;28;20025;-62
2023/04/17 07:00:39;;;;;;;73.40;61.33;;;333.40;2329.60;;;;;;5052277;28;20056;-60
2023/04/17 07:03:05;;;;;;;129.38;102.47;;;333.40;2329.60;;;;;;5037605;28;20090;-60
2023/04/17 07:05:31;;;;;;;177.48;145.18;;;333.40;2329.60;;;;;;5052205;28;20033;-61
2023/04/17 07:07:56;;;;;;;34.53;27.15;;;333.40;2329.60;;;;;;5050432;28;20056;-61
2023/04/17 07:10:22;;;;;;;31.42;23.55;;;333.50;2329.60;;;;;;5051584;28;20059;-62
2023/04/17 07:12:48;;;;;;;66.97;59.33;;;333.50;2329.60;;;;;;5049573;28;20040;-61
2023/04/17 07:15:15;;;;;;;73.65;65.63;;;333.50;2329.60;;;;;;5041149;28;20025;-61
2023/04/17 07:17:40;;;;;;;29.08;24.38;;;333.50;2329.60;;;;;;5051938;28;20055;-62
2023/04/17 07:20:07;;;;;;;30.52;24.13;;;333.50;2329.60;;;;;;5051932;28;20112;-62
2023/04/17 07:22:35;;;;;;;31.15;24.83;;;333.50;2329.60;;;;;;5051916;28;20421;-61
2023/04/17 07:25:01;;;;;;;34.38;28.95;;;333.40;2329.60;;;;;;5051375;28;20036;-62
2023/04/17 07:27:27;;;;;;;41.60;33.45;;;333.40;2329.60;;;;;;5050871;28;20475;-62
2023/04/17 07:29:55;;;;;;;31.42;24.88;;;333.40;2329.60;;;;;;5051977;28;20023;-62
2023/04/17 07:32:23;;;;;;;32.50;25.63;;;333.10;2329.60;;;;;;5035469;28;20102;-62
2023/04/17 07:34:49;;;;;;;33.97;26.25;;;333.00;2329.60;;;;;;5041836;28;20695;-63
2023/04/17 07:37:15;;;;;;;35.42;24.17;;;332.90;2329.60;;;;;;5034919;28;20079;-62
2023/04/17 07:39:41;;;;;;;37.85;28.42;;;333.00;2329.60;;;;;;5038300;28;20091;-61
2023/04/17 07:42:07;;;;;;;40.58;33.67;;;333.10;2329.60;;;;;;5050943;28;20147;-61
2023/04/17 07:44:34;;;;;;;33.22;26.08;;;333.00;2329.60;;;;;;5035142;28;20495;-62
2023/04/17 07:47:00;;;;;;;39.63;29.23;;;333.00;2329.60;;;;;;5034746;28;20356;-61
2023/04/17 07:49:26;;;;;;;36.22;25.50;;;333.00;2329.60;;;;;;5047337;28;20035;-62
2023/04/17 07:51:51;;;;;;;38.75;26.42;;;333.10;2329.60;;;;;;5050085;28;20048;-62
2023/04/17 07:54:17;;;;;;;33.85;26.60;;;332.90;2329.60;;;;;;5050019;28;20391;-61
2023/04/17 07:56:45;;;;;;;33.28;24.90;;;333.10;2329.60;;;;;;5049359;28;20037;-62
2023/04/17 07:59:11;;;;;;;36.42;25.73;;;333.10;2329.60;;;;;;5050400;28;20036;-63
2023/04/17 08:01:37;;;;;;;36.22;26.10;;;333.20;2329.60;;;;;;5045132;28;20029;-62
2023/04/17 08:04:03;;;;;;;40.10;30.23;;;333.20;2329.60;;;;;;5050074;28;20055;-63
2023/04/17 08:06:29;;;;;;;49.97;43.50;;;333.10;2329.60;;;;;;5038067;28;20056;-62
2023/04/17 08:08:55;;;;;;;43.55;32.58;;;333.00;2329.60;;;;;;5048801;28;20483;-62
2023/04/17 08:11:21;;;;;;;36.63;29.60;;;333.10;2329.60;;;;;;5049999;28;20059;-62
2023/04/17 08:13:47;;;;;;;44.70;29.80;;;333.10;2329.60;;;;;;5050461;28;20033;-64
2023/04/17 08:16:12;;;;;;;35.20;24.63;;;333.10;2329.60;;;;;;5049933;28;20036;-63
2023/04/17 08:18:40;;;;;;;36.72;25.83;;;333.00;2329.60;;;;;;5050081;28;20033;-62
2023/04/17 08:21:07;;;;;;;36.13;26.92;;;332.90;2329.60;;;;;;5047769;28;20096;-63
2023/04/17 08:23:33;;;;;;;42.33;29.42;;;333.00;2150.40;;;;;;5026980;28;20590;-61
2023/04/17 08:25:59;;;;;;;41.08;29.42;;;333.20;2329.60;;;;;;5036717;28;20018;-61
2023/04/17 08:28:25;;;;;;;39.65;30.52;;;333.30;2329.60;;;;;;5041173;28;20479;-62
2023/04/17 08:30:51;;;;;;;42.05;28.92;;;333.30;2329.60;;;;;;5046465;28;20017;-63
2023/04/17 08:33:17;;;;;;;40.33;29.13;;;333.40;2329.60;;;;;;5028076;28;20064;-64
2023/04/17 08:35:43;;;;;;;40.80;28.27;;;333.50;2329.60;;;;;;5041842;28;20025;-63
2023/04/17 08:38:13;;;;;;;34.08;25.73;;;333.50;2329.60;;;;;;5029075;28;20052;-63
2023/04/17 08:40:45;;;;;;;31.77;25.08;;;333.50;2329.60;;;;;;5036833;28;20033;-62
2023/04/17 08:43:15;;;;;;;34.67;24.98;;;333.70;2329.60;;;;;;5030173;28;20091;-62
2023/04/17 08:45:52;;;;;;;32.63;23.67;;;333.60;2329.60;;;;;;5027834;28;20475;-64
2023/04/17 08:48:21;;;;;;;37.30;24.65;;;333.70;2329.60;;;;;;5042280;28;20029;-62
2023/04/17 08:50:49;;;;;;;39.00;25.08;;;333.50;2329.60;;;;;;5029435;28;20040;-63
2023/04/17 08:53:15;;;;;;;29.38;22.23;;;333.50;2329.60;;;;;;5046616;28;20037;-64
2023/04/17 08:55:42;;;;;;;38.65;27.27;;;333.60;2329.60;;;;;;5043225;28;20036;-62
2023/04/17 08:58:08;;;;;;;35.70;26.77;;;333.70;2329.60;;;;;;5047814;28;20021;-62
2023/04/17 09:00:36;;;;;;;34.78;24.83;;;333.60;2329.60;;;;;;5048536;28;20428;-63
2023/04/17 09:03:06;;;;;;;41.72;29.20;;;333.50;2329.60;;;;;;5048293;28;20025;-62
2023/04/17 09:05:36;;;;;;;37.15;27.13;;;333.40;2329.60;;;;;;5048445;28;20031;-64
2023/04/17 09:08:10;;;;;;;40.38;29.42;;;333.50;2329.60;;;;;;5043520;28;20024;-64
2023/04/17 09:10:40;;;;;;;42.13;27.48;;;333.50;2329.60;;;;;;5027782;28;20846;-63
2023/04/17 09:13:07;;;;;;;34.65;26.58;;;333.40;2329.60;;;;;;5029846;28;20045;-63
2023/04/17 09:15:34;;;;;;;38.67;26.10;;;333.40;2329.60;;;;;;5028973;28;20029;-63
2023/04/17 09:18:00;;;;;;;35.10;24.02;;;333.50;2329.60;;;;;;5047190;28;20399;-62
2023/04/17 09:20:27;;;;;;;32.08;26.42;;;333.40;2329.60;;;;;;5047383;28;20029;-61
2023/04/17 09:23:01;;;;;;;32.25;23.33;;;333.20;2329.60;;;;;;5044058;28;20059;-63
2023/04/17 09:25:28;;;;;;;30.23;22.90;;;333.20;2329.60;;;;;;5047687;28;20087;-62
2023/04/17 09:28:00;;;;;;;28.63;21.38;;;333.20;2329.60;;;;;;5038926;28;20044;-62
2023/04/17 09:30:26;;;;;;;27.30;21.08;;;333.60;2329.60;;;;;;5028198;28;20032;-64
2023/04/17 09:33:03;;;;;;;44.25;35.55;;;333.10;2329.60;;;;;;5044637;28;20033;-62
2023/04/17 09:35:29;;;;;;;31.10;24.38;;;333.10;2329.60;;;;;;5047960;28;20029;-63
2023/04/17 09:37:58;;;;;;;29.42;26.02;;;333.10;2329.60;;;;;;5039031;28;20705;-62
2023/04/17 09:40:24;;;;;;;29.10;25.58;;;333.10;2329.60;;;;;;5020013;28;20030;-62
2023/04/17 09:43:02;;;;;;;33.10;23.38;;;333.10;2329.60;;;;;;5017237;28;20883;-61
2023/04/17 09:45:38;;;;;;;34.05;26.10;;;333.00;2329.60;;;;;;5033230;28;20108;-61
2023/04/17 09:48:09;;;;;;;30.92;23.05;;;332.90;2329.60;;;;;;5023483;28;20048;-61
2023/04/17 09:50:36;;;;;;;30.40;24.52;;;332.90;2022.40;;;;;;5011225;28;20095;-61
2023/04/17 09:53:03;;;;;;;29.92;22.95;;;332.90;1996.80;;;;;;5029125;28;20379;-62
2023/04/17 09:55:30;;;;;;;28.83;23.75;;;333.00;2329.60;;;;;;5033890;28;20025;-65
2023/04/17 09:58:00;;;;;;;29.85;23.73;;;333.00;2201.60;;;;;;5011702;28;20033;-63
2023/04/17 10:00:26;;;;;;;33.72;24.40;;;333.00;2073.60;;;;;;5029885;28;20029;-64
2023/04/17 10:02:53;;;;;;;31.08;26.17;;;333.10;2329.60;;;;;;5029752;28;20659;-63
2023/04/17 10:05:20;;;;;;;37.75;29.67;;;333.10;2329.60;;;;;;5048108;28;20473;-65
2023/04/17 10:07:46;;;;;;;31.85;25.10;;;333.30;2329.60;;;;;;5048286;28;20017;-61
2023/04/17 10:10:25;;;;;;;30.35;23.83;;;333.40;2329.60;;;;;;5041883;28;20068;-62
2023/04/17 10:12:54;;;;;;;32.13;23.02;;;333.40;2329.60;;;;;;5029485;28;20102;-61
2023/04/17 10:15:22;;;;;;;25.80;18.45;;;333.70;2329.60;;;;;;5030599;28;20021;-62
2023/04/17 10:17:48;;;;;;;31.05;23.05;;;358.40;2329.60;;;;;;5033146;28;20037;-73
2023/04/17 10:20:21;;;;;;;32.58;24.63;;;333.70;2329.60;;;;;;5024357;28;20025;-74
2023/04/17 10:22:53;;;;;;;30.67;23.20;;;333.70;2329.60;;;;;;5018145;28;20034;-73
2023/04/17 10:25:25;;;;;;;26.33;22.33;;;333.70;2329.60;;;;;;5024017;28;20040;-73
2023/04/17 10:27:52;;;;;;;40.53;33.93;;;333.60;2329.60;;;;;;5020683;28;20025;-72
2023/04/17 10:30:21;;;;;;;83.25;65.70;;;333.70;2329.60;;;;;;5031047;28;20113;-68
2023/04/17 10:33:14;;;;;;;42.03;32.58;;;358.40;2329.60;;;;;;5014939;28;20071;-73
2023/04/17 10:35:40;;;;;;;69.68;57.00;;;358.40;2329.60;;;;;;5024948;28;20482;-67
2023/04/17 10:38:07;;;;;;;45.72;35.25;;;358.40;2329.60;;;;;;5022804;28;20036;-67
2023/04/17 10:40:37;;;;;;;35.33;27.42;;;358.50;2329.60;;;;;;5027212;28;20021;-67
2023/04/17 10:43:11;;;;;;;46.15;35.55;;;358.60;2329.60;;;;;;4961207;28;1947259;-69
2023/04/17 10:45:58;;;;;;;36.35;28.50;;;358.80;2329.60;;;;;;5030086;28;20029;-67
2023/04/17 10:48:40;;;;;;;29.60;24.70;;;359.00;2329.60;;;;;;5031382;28;20025;-69
2023/04/17 10:51:25;;;;;;;25.00;19.55;;;359.00;2329.60;;;;;;5025800;28;20036;-66
2023/04/17 10:54:01;;;;;;;25.10;20.33;;;358.80;2329.60;;;;;;5023778;28;20030;-68
2023/04/17 10:56:38;;;;;;;23.92;19.83;;;358.60;2329.60;;;;;;5017882;28;20107;-69
2023/04/17 10:59:08;;;;;;;24.20;19.13;;;358.50;2329.60;;;;;;5020123;28;20112;-66
2023/04/17 11:01:36;;;;;;;25.20;18.58;;;358.50;2329.60;;;;;;5023003;28;20021;-70
2023/04/17 11:04:03;;;;;;;23.08;19.15;;;358.40;2329.60;;;;;;5014699;28;20026;-69
2023/04/17 11:06:36;;;;;;;24.15;19.73;;;358.50;2329.60;;;;;;5013642;28;20120;-70
2023/04/17 11:09:06;;;;;;;24.58;18.23;;;358.50;2329.60;;;;;;5013412;28;20045;-70
2023/04/17 11:11:40;;;;;;;21.20;17.73;;;358.60;2329.60;;;;;;5018245;28;20109;-69
2023/04/17 11:14:10;;;;;;;25.52;19.08;;;358.60;2329.60;;;;;;5014352;28;20034;-70
2023/04/17 11:16:39;;;;;;;23.20;18.75;;;358.50;2329.60;;;;;;5027256;28;20026;-69
2023/04/17 11:19:08;;;;;;;26.98;21.55;;;358.50;2329.60;;;;;;5024856;28;20021;-68
2023/04/17 11:21:44;;;;;;;30.70;24.92;;;358.50;2329.60;;;;;;5031854;28;20479;-69
2023/04/17 11:24:10;;;;;;;34.03;27.63;;;358.50;2329.60;;;;;;5014184;28;20049;-72
2023/04/17 11:26:46;;;;;;;33.38;25.58;;;358.50;2329.60;;;;;;5029754;28;20383;-69
2023/04/17 11:29:20;;;;;;;51.63;38.50;;;358.40;2329.60;;;;;;5025214;28;20060;-67
2023/04/17 11:31:51;;;;;;;46.65;35.90;;;358.50;2329.60;;;;;;5026359;28;20109;-69
2023/04/17 11:34:17;;;;;;;198.40;125.88;;;358.70;2329.60;;;;;;5030105;28;20048;-70
2023/04/17 11:36:57;;;;;;;166.07;105.03;;;358.80;2329.60;;;;;;5026470;28;20387;-68
2023/04/17 11:39:24;;;;;;;41.92;33.05;;;359.00;2329.60;;;;;;5029575;28;20115;-71
2023/04/17 11:41:52;;;;;;;30.20;24.70;;;359.00;2329.60;;;;;;5019729;28;20100;-73
2023/04/17 11:44:19;;;;;;;31.05;25.65;;;359.00;2329.60;;;;;;5020710;28;20577;-67
2023/04/17 11:46:55;;;;;;;32.30;25.42;;;358.80;2329.60;;;;;;5023335;28;20383;-68
2023/04/17 11:49:32;;;;;;;34.75;27.58;;;358.60;2329.60;;;;;;5013520;28;20036;-66
2023/04/17 11:52:03;;;;;;;35.78;26.77;;;358.60;2329.60;;;;;;5027213;28;20030;-71
2023/04/17 11:54:33;;;;;;;37.30;29.48;;;358.50;2252.80;;;;;;5038635;28;20056;-71
2023/04/17 11:57:01;;;;;;;39.03;30.30;;;358.50;2329.60;;;;;;5047856;28;20039;-71
2023/04/17 11:59:35;;;;;;;35.83;27.60;;;358.50;2329.60;;;;;;5033772;28;20033;-70